createdAt,value
2023-04-09T00:01:19.395Z,4.12
2023-04-09T00:03:47.472Z,4.12
2023-04-09T00:06:15.839Z,4.10
2023-04-09T00:08:43.900Z,4.08
2023-04-09T00:11:12.342Z,4.06
2023-04-09T00:13:40.391Z,4.02
2023-04-09T00:16:08.968Z,3.99
2023-04-09T00:18:37.194Z,3.99
2023-04-09T00:21:05.693Z,3.99
2023-04-09T00:23:34.620Z,4.00
2023-04-09T00:26:02.897Z,4.01
2023-04-09T00:28:30.941Z,4.00
2023-04-09T00:30:58.891Z,3.98
2023-04-09T00:33:27.292Z,3.99
2023-04-09T00:35:55.771Z,4.05
2023-04-09T00:38:23.891Z,4.11
2023-04-09T00:40:51.962Z,4.12
2023-04-09T00:43:22.497Z,4.14
2023-04-09T00:45:50.495Z,4.13
2023-04-09T00:48:18.708Z,4.14
2023-04-09T00:50:46.801Z,4.16
2023-04-09T00:53:16.265Z,4.16
2023-04-09T00:55:46.013Z,4.17
2023-04-09T00:58:14.580Z,4.20
2023-04-09T01:00:42.546Z,4.20
2023-04-09T01:03:10.681Z,4.21
2023-04-09T01:05:47.215Z,4.24
2023-04-09T01:08:32.154Z,4.22
2023-04-09T01:11:09.868Z,4.18
2023-04-09T01:13:46.390Z,4.16
2023-04-09T01:16:16.982Z,4.16
2023-04-09T01:18:56.601Z,4.20
2023-04-09T01:21:31.267Z,4.22
2023-04-09T01:24:23.711Z,4.22
2023-04-09T01:27:03.219Z,4.23
2023-04-09T01:29:54.271Z,4.27
2023-04-09T01:32:24.164Z,4.30
2023-04-09T01:34:53.293Z,4.31
2023-04-09T01:37:23.925Z,4.33
2023-04-09T01:39:52.221Z,4.38
2023-04-09T01:42:20.848Z,4.41
2023-04-09T01:44:48.984Z,4.42
2023-04-09T01:47:17.083Z,4.44
2023-04-09T01:49:45.667Z,4.43
2023-04-09T01:52:14.781Z,4.41
2023-04-09T01:54:43.197Z,4.39
2023-04-09T01:57:11.703Z,4.39
2023-04-09T01:59:39.923Z,4.39
2023-04-09T02:02:15.895Z,4.37
2023-04-09T02:04:46.643Z,4.34
2023-04-09T02:07:29.445Z,4.31
2023-04-09T02:09:59.703Z,4.29
2023-04-09T02:12:33.344Z,4.29
2023-04-09T02:15:02.249Z,4.30
2023-04-09T02:17:30.326Z,4.33
2023-04-09T02:19:58.474Z,4.38
2023-04-09T02:22:26.372Z,4.41
2023-04-09T02:24:54.251Z,4.47
2023-04-09T02:27:22.184Z,4.55
2023-04-09T02:29:50.892Z,4.57
2023-04-09T02:32:18.883Z,4.58
2023-04-09T02:34:46.891Z,4.64
2023-04-09T02:37:14.790Z,4.68
2023-04-09T02:39:42.815Z,4.69
2023-04-09T02:42:10.771Z,4.70
2023-04-09T02:44:38.808Z,4.73
2023-04-09T02:47:06.830Z,4.78
2023-04-09T02:49:35.321Z,4.83
2023-04-09T02:52:03.259Z,4.88
2023-04-09T02:54:31.180Z,4.93
2023-04-09T02:56:59.112Z,4.98
2023-04-09T02:59:27.085Z,5.04
2023-04-09T03:01:55.118Z,5.04
2023-04-09T03:04:23.351Z,5.00
2023-04-09T03:06:51.701Z,4.95
2023-04-09T03:09:20.281Z,4.91
2023-04-09T03:11:48.193Z,4.84
2023-04-09T03:14:16.162Z,4.73
2023-04-09T03:16:45.805Z,4.67
2023-04-09T03:19:13.790Z,4.70
2023-04-09T03:21:41.770Z,4.63
2023-04-09T03:24:09.770Z,4.60
2023-04-09T03:26:38.626Z,4.61
2023-04-09T03:29:08.519Z,4.61
2023-04-09T03:31:36.562Z,4.60
2023-04-09T03:34:04.560Z,4.60
2023-04-09T03:36:33.321Z,4.63
2023-04-09T03:39:05.940Z,4.71
2023-04-09T03:41:37.155Z,4.80
2023-04-09T03:44:07.854Z,4.88
2023-04-09T03:46:53.086Z,4.94
2023-04-09T03:49:21.230Z,4.98
2023-04-09T03:51:49.148Z,5.03
2023-04-09T03:54:17.241Z,5.09
2023-04-09T03:56:45.957Z,5.15
2023-04-09T03:59:14.438Z,5.20
2023-04-09T04:01:44.225Z,5.25
2023-04-09T04:04:12.296Z,5.28
2023-04-09T04:06:59.292Z,5.16
2023-04-09T04:09:33.386Z,5.03
2023-04-09T04:12:05.868Z,5.03
2023-04-09T04:14:44.046Z,5.07
2023-04-09T04:17:21.241Z,5.00
2023-04-09T04:19:49.872Z,4.97
2023-04-09T04:22:18.562Z,4.96
2023-04-09T04:24:47.520Z,5.02
2023-04-09T04:27:17.989Z,5.06
2023-04-09T04:29:46.594Z,5.08
2023-04-09T04:32:27.535Z,5.11
2023-04-09T04:34:56.278Z,5.09
2023-04-09T04:37:26.461Z,5.07
2023-04-09T04:39:57.624Z,5.03
2023-04-09T04:42:26.771Z,4.96
2023-04-09T04:44:54.720Z,4.95
2023-04-09T04:47:48.828Z,4.94
2023-04-09T04:50:18.206Z,4.90
2023-04-09T04:53:15.471Z,4.94
2023-04-09T04:55:48.508Z,4.96
2023-04-09T04:58:18.356Z,4.99
2023-04-09T05:00:49.579Z,5.03
2023-04-09T05:03:18.072Z,5.06
2023-04-09T05:06:07.822Z,5.08
2023-04-09T05:08:41.613Z,5.11
2023-04-09T05:11:12.995Z,5.15
2023-04-09T05:13:41.491Z,5.16
2023-04-09T05:16:19.693Z,5.17
2023-04-09T05:18:53.147Z,5.13
2023-04-09T05:21:21.260Z,5.09
2023-04-09T05:23:49.676Z,5.09
2023-04-09T05:26:17.605Z,5.09
2023-04-09T05:28:50.731Z,5.08
2023-04-09T05:31:20.438Z,5.11
2023-04-09T05:33:57.889Z,5.11
2023-04-09T05:36:34.613Z,5.10
2023-04-09T05:39:03.229Z,5.06
2023-04-09T05:41:32.779Z,5.02
2023-04-09T05:44:28.890Z,5.04
2023-04-09T05:47:02.179Z,5.08
2023-04-09T05:49:34.801Z,5.15
2023-04-09T05:52:04.850Z,5.21
2023-04-09T05:54:33.156Z,5.17
2023-04-09T05:57:01.309Z,5.15
2023-04-09T05:59:29.447Z,5.11
2023-04-09T06:01:57.376Z,5.07
2023-04-09T06:04:25.422Z,5.03
2023-04-09T06:06:53.396Z,5.02
2023-04-09T06:09:21.624Z,5.01
2023-04-09T06:11:49.512Z,5.00
2023-04-09T06:17:39.430Z,5.06
2023-04-09T06:20:08.046Z,5.06
2023-04-09T06:22:36.087Z,5.09
2023-04-09T06:25:04.489Z,5.11
2023-04-09T06:27:53.185Z,5.13
2023-04-09T06:30:23.673Z,5.15
2023-04-09T06:32:55.147Z,5.17
2023-04-09T06:35:24.320Z,5.20
2023-04-09T06:37:52.244Z,5.23
2023-04-09T06:40:23.002Z,5.26
2023-04-09T06:42:51.460Z,5.29
2023-04-09T06:45:25.007Z,5.32
2023-04-09T06:47:53.300Z,5.37
2023-04-09T06:50:21.757Z,5.45
2023-04-09T06:52:49.734Z,5.53
2023-04-09T06:55:18.121Z,5.59
2023-04-09T06:57:46.120Z,5.66
2023-04-09T07:00:14.316Z,5.76
2023-04-09T07:02:42.787Z,5.79
2023-04-09T07:05:11.223Z,5.84
2023-04-09T07:07:39.148Z,5.88
2023-04-09T07:10:07.689Z,5.90
2023-04-09T07:12:35.775Z,5.93
2023-04-09T07:15:06.233Z,5.96
2023-04-09T07:17:35.300Z,5.99
2023-04-09T07:20:04.160Z,6.02
2023-04-09T07:22:32.353Z,6.13
2023-04-09T07:25:00.801Z,6.18
2023-04-09T07:27:29.308Z,6.22
2023-04-09T07:29:58.798Z,6.29
2023-04-09T07:32:30.980Z,6.35
2023-04-09T07:34:59.702Z,6.38
2023-04-09T07:37:27.724Z,6.42
2023-04-09T07:39:57.268Z,6.47
2023-04-09T07:42:25.733Z,6.53
2023-04-09T07:44:53.753Z,6.59
2023-04-09T07:47:21.819Z,6.68
2023-04-09T07:49:50.187Z,6.74
2023-04-09T07:52:18.227Z,6.83
2023-04-09T07:54:46.245Z,6.91
2023-04-09T07:57:14.367Z,6.98
2023-04-09T07:59:43.125Z,7.04
2023-04-09T08:02:14.351Z,7.13
2023-04-09T08:04:43.266Z,7.18
2023-04-09T08:07:11.828Z,7.22
2023-04-09T08:09:39.755Z,7.35
2023-04-09T08:12:08.202Z,7.51
2023-04-09T08:14:36.195Z,7.65
2023-04-09T08:17:04.352Z,7.83
2023-04-09T08:19:32.555Z,7.90
2023-04-09T08:22:02.111Z,7.91
2023-04-09T08:24:30.055Z,7.97
2023-04-09T08:26:58.018Z,8.04
2023-04-09T08:29:26.910Z,8.12
2023-04-09T08:31:55.152Z,8.16
2023-04-09T08:34:23.311Z,8.19
2023-04-09T08:36:51.710Z,8.23
2023-04-09T08:39:20.767Z,8.26
2023-04-09T08:41:49.971Z,8.23
2023-04-09T08:44:18.439Z,8.25
2023-04-09T08:46:46.631Z,8.31
2023-04-09T08:49:14.716Z,8.39
2023-04-09T08:51:46.937Z,8.42
2023-04-09T08:54:17.432Z,8.46
2023-04-09T08:56:46.543Z,8.51
2023-04-09T08:59:18.677Z,8.57
2023-04-09T09:01:49.469Z,8.61
2023-04-09T09:04:17.629Z,8.68
2023-04-09T09:06:45.953Z,8.73
2023-04-09T09:09:19.040Z,8.83
2023-04-09T09:11:50.230Z,8.88
2023-04-09T09:14:19.747Z,8.89
2023-04-09T09:16:57.932Z,8.87
2023-04-09T09:19:26.184Z,8.87
2023-04-09T09:21:59.441Z,8.86
2023-04-09T09:24:27.830Z,8.81
2023-04-09T09:26:57.436Z,8.81
2023-04-09T09:29:26.007Z,8.78
2023-04-09T09:31:56.327Z,8.74
2023-04-09T09:34:25.389Z,8.64
2023-04-09T09:36:53.698Z,8.57
2023-04-09T09:39:22.352Z,8.49
2023-04-09T09:42:07.631Z,8.52
2023-04-09T09:44:35.886Z,8.55
2023-04-09T09:47:04.752Z,8.56
2023-04-09T09:49:32.748Z,8.67
2023-04-09T09:52:03.254Z,8.71
2023-04-09T09:54:40.089Z,8.71
2023-04-09T09:57:10.168Z,8.68
2023-04-09T09:59:43.557Z,8.68
2023-04-09T10:02:23.473Z,8.74
2023-04-09T10:04:53.074Z,8.74
2023-04-09T10:07:24.647Z,8.66
2023-04-09T10:09:56.658Z,8.63
2023-04-09T10:12:25.519Z,8.66
2023-04-09T10:14:56.023Z,8.71
2023-04-09T10:17:24.158Z,8.77
2023-04-09T10:20:05.582Z,8.85
2023-04-09T10:22:36.523Z,8.98
2023-04-09T10:25:06.579Z,9.04
2023-04-09T10:27:34.651Z,9.12
2023-04-09T10:30:02.932Z,9.26
2023-04-09T10:32:36.375Z,9.39
2023-04-09T10:35:04.884Z,9.45
2023-04-09T10:37:32.907Z,9.48
2023-04-09T10:40:03.939Z,9.48
2023-04-09T10:42:42.087Z,9.50
2023-04-09T10:45:12.361Z,9.55
2023-04-09T10:47:42.873Z,9.54
2023-04-09T10:50:17.320Z,9.61
2023-04-09T10:52:45.665Z,9.65
2023-04-09T10:55:42.239Z,9.61
2023-04-09T10:58:13.491Z,9.63
2023-04-09T11:00:44.143Z,9.69
2023-04-09T11:03:27.422Z,9.74
2023-04-09T11:06:00.351Z,9.91
2023-04-09T11:08:30.491Z,10.05
2023-04-09T11:11:01.415Z,10.11
2023-04-09T11:13:31.695Z,10.18
2023-04-09T11:16:01.604Z,10.25
2023-04-09T11:18:30.767Z,10.26
2023-04-09T11:21:00.900Z,10.30
2023-04-09T11:23:29.464Z,10.35
2023-04-09T11:25:57.446Z,10.31
2023-04-09T11:28:27.313Z,10.23
2023-04-09T11:30:55.343Z,10.21
2023-04-09T11:33:23.277Z,10.19
2023-04-09T11:35:51.249Z,10.19
2023-04-09T11:38:19.207Z,10.19
2023-04-09T11:40:50.443Z,10.16
2023-04-09T11:43:18.934Z,10.14
2023-04-09T11:45:49.768Z,10.13
2023-04-09T11:48:18.638Z,10.17
2023-04-09T11:50:47.508Z,10.17
2023-04-09T11:53:22.921Z,10.20
2023-04-09T11:55:52.290Z,10.21
2023-04-09T11:58:26.380Z,10.20
2023-04-09T12:01:03.579Z,10.21
2023-04-09T12:03:35.005Z,10.26
2023-04-09T12:06:04.084Z,10.38
2023-04-09T12:08:36.401Z,10.48
2023-04-09T12:11:17.075Z,10.57
2023-04-09T12:13:46.642Z,10.57
2023-04-09T12:16:15.174Z,10.56
2023-04-09T12:18:43.446Z,10.62
2023-04-09T12:21:12.232Z,10.71
2023-04-09T12:23:40.927Z,10.76
2023-04-09T12:26:08.971Z,10.81
2023-04-09T12:28:37.128Z,10.86
2023-04-09T12:31:05.231Z,10.89
2023-04-09T12:33:34.050Z,10.91
2023-04-09T12:36:02.105Z,10.86
2023-04-09T12:38:30.454Z,10.83
2023-04-09T12:40:58.351Z,10.82
2023-04-09T12:43:26.469Z,10.82
2023-04-09T12:45:54.542Z,10.83
2023-04-09T12:48:22.528Z,10.82
2023-04-09T12:50:50.676Z,10.81
2023-04-09T12:53:18.767Z,10.80
2023-04-09T12:55:47.023Z,10.76
2023-04-09T12:58:15.060Z,10.77
2023-04-09T13:00:43.030Z,10.79
2023-04-09T13:03:11.986Z,10.82
2023-04-09T13:05:40.268Z,10.83
2023-04-09T13:08:08.444Z,10.86
2023-04-09T13:10:37.068Z,10.90
2023-04-09T13:13:05.572Z,10.98
2023-04-09T13:15:34.498Z,11.06
2023-04-09T13:18:02.904Z,11.13
2023-04-09T13:20:31.119Z,11.24
2023-04-09T13:22:59.102Z,11.35
2023-04-09T13:25:27.062Z,11.44
2023-04-09T13:27:55.041Z,11.48
2023-04-09T13:30:23.586Z,11.45
2023-04-09T13:32:51.949Z,11.40
2023-04-09T13:35:20.075Z,11.37
2023-04-09T13:37:47.985Z,11.32
2023-04-09T13:40:16.591Z,11.27
2023-04-09T13:42:45.054Z,11.15
2023-04-09T13:45:13.046Z,11.08
2023-04-09T13:47:41.246Z,10.98
2023-04-09T13:50:10.444Z,10.88
2023-04-09T13:52:38.654Z,10.83
2023-04-09T13:55:07.650Z,10.81
2023-04-09T13:57:35.831Z,10.81
2023-04-09T14:00:05.975Z,10.81
2023-04-09T14:02:34.805Z,10.78
2023-04-09T14:05:04.071Z,10.75
2023-04-09T14:07:32.226Z,10.76
2023-04-09T14:10:00.203Z,10.74
2023-04-09T14:12:28.118Z,10.72
2023-04-09T14:14:56.184Z,10.67
2023-04-09T14:17:24.191Z,10.65
2023-04-09T14:19:52.194Z,10.59
2023-04-09T14:22:20.095Z,10.60
2023-04-09T14:24:48.041Z,10.59
2023-04-09T14:27:16.050Z,10.58
2023-04-09T14:29:44.071Z,10.56
2023-04-09T14:32:12.240Z,10.50
2023-04-09T14:34:40.420Z,10.41
2023-04-09T14:37:08.705Z,10.36
2023-04-09T14:39:36.938Z,10.32
2023-04-09T14:42:04.950Z,10.28
2023-04-09T14:44:33.059Z,10.21
2023-04-09T14:47:01.076Z,10.12
2023-04-09T14:49:29.242Z,9.99
2023-04-09T14:51:57.162Z,9.94
2023-04-09T14:54:25.223Z,9.97
2023-04-09T14:56:53.340Z,10.01
2023-04-09T14:59:22.271Z,10.03
2023-04-09T15:01:50.576Z,10.03
2023-04-09T15:04:19.101Z,10.08
2023-04-09T15:06:47.165Z,10.11
2023-04-09T15:09:15.611Z,10.15
2023-04-09T15:11:43.602Z,10.17
2023-04-09T15:14:11.619Z,10.13
2023-04-09T15:16:39.737Z,10.11
2023-04-09T15:19:07.843Z,10.08
2023-04-09T15:21:36.363Z,10.09
2023-04-09T15:24:04.526Z,10.14
2023-04-09T15:26:34.786Z,10.18
2023-04-09T15:29:07.275Z,10.21
2023-04-09T15:31:35.639Z,10.20
2023-04-09T15:34:03.721Z,10.16
2023-04-09T15:36:32.568Z,10.13
2023-04-09T15:39:02.217Z,10.14
2023-04-09T15:41:32.314Z,10.15
2023-04-09T15:44:00.266Z,10.15
2023-04-09T15:46:28.181Z,10.13
2023-04-09T15:48:56.171Z,10.08
2023-04-09T15:51:24.116Z,10.09
2023-04-09T15:53:52.225Z,10.09
2023-04-09T15:56:20.366Z,10.07
2023-04-09T15:58:48.420Z,10.11
2023-04-09T16:01:17.369Z,10.11
2023-04-09T16:03:50.760Z,10.06
2023-04-09T16:06:19.048Z,9.99
2023-04-09T16:08:47.153Z,10.00
2023-04-09T16:11:15.456Z,9.99
2023-04-09T16:13:43.573Z,9.99
2023-04-09T16:16:11.727Z,9.99
2023-04-09T16:18:39.652Z,9.92
2023-04-09T16:21:07.794Z,9.87
2023-04-09T16:23:35.778Z,9.85
2023-04-09T16:26:03.908Z,9.87
2023-04-09T16:28:31.864Z,9.87
2023-04-09T16:30:59.871Z,9.84
2023-04-09T16:33:27.933Z,9.80
2023-04-09T16:35:56.090Z,9.76
2023-04-09T16:38:24.936Z,9.74
2023-04-09T16:40:53.182Z,9.80
2023-04-09T16:43:21.350Z,9.80
2023-04-09T16:45:49.377Z,9.81
2023-04-09T16:48:17.484Z,9.84
2023-04-09T16:50:45.598Z,9.84
2023-04-09T16:53:13.567Z,9.86
2023-04-09T16:55:41.641Z,9.89
2023-04-09T16:58:09.728Z,9.91
2023-04-09T17:00:38.073Z,9.97
2023-04-09T17:03:06.432Z,10.06
2023-04-09T17:05:34.822Z,10.14
2023-04-09T17:08:03.077Z,10.19
2023-04-09T17:10:31.344Z,10.22
2023-04-09T17:12:59.263Z,10.22
2023-04-09T17:15:27.883Z,10.23
2023-04-09T17:17:58.400Z,10.22
2023-04-09T17:20:27.000Z,10.19
2023-04-09T17:22:54.966Z,10.18
2023-04-09T17:25:23.100Z,10.17
2023-04-09T17:27:51.760Z,10.18
2023-04-09T17:30:20.611Z,10.17
2023-04-09T17:32:50.089Z,10.14
2023-04-09T17:35:18.648Z,10.09
2023-04-09T17:37:47.161Z,10.03
2023-04-09T17:40:16.945Z,9.97
2023-04-09T17:42:45.543Z,9.87
2023-04-09T17:45:14.191Z,9.78
2023-04-09T17:47:42.385Z,9.72
2023-04-09T17:50:10.734Z,9.68
2023-04-09T17:52:39.257Z,9.62
2023-04-09T17:55:12.463Z,9.58
2023-04-09T17:57:41.041Z,9.44
2023-04-09T18:00:10.400Z,9.26
2023-04-09T18:02:47.235Z,9.10
2023-04-09T18:05:16.266Z,9.00
2023-04-09T18:07:44.565Z,8.95
2023-04-09T18:10:12.494Z,8.85
2023-04-09T18:12:40.872Z,8.76
2023-04-09T18:15:09.285Z,8.71
2023-04-09T18:17:37.576Z,8.61
2023-04-09T18:20:06.618Z,8.53
2023-04-09T18:22:35.304Z,8.45
2023-04-09T18:25:03.440Z,8.43
2023-04-09T18:36:28.326Z,8.13
2023-04-09T18:38:57.990Z,8.07
2023-04-09T18:41:27.258Z,8.05
2023-04-09T18:43:56.466Z,7.98
2023-04-09T18:46:25.357Z,7.88
2023-04-09T18:48:53.503Z,7.85
2023-04-09T18:51:21.618Z,7.80
2023-04-09T18:53:54.620Z,7.76
2023-04-09T18:56:22.918Z,7.68
2023-04-09T18:58:54.078Z,7.60
2023-04-09T19:01:23.181Z,7.53
2023-04-09T19:03:51.864Z,7.50
2023-04-09T19:06:20.924Z,7.47
2023-04-09T19:08:50.170Z,7.42
2023-04-09T19:11:18.562Z,7.39
2023-04-09T19:13:47.857Z,7.38
2023-04-09T19:16:17.127Z,7.35
2023-04-09T19:18:45.099Z,7.33
2023-04-09T19:21:13.472Z,7.33
2023-04-09T19:23:45.043Z,7.31
2023-04-09T19:26:13.451Z,7.27
2023-04-09T19:28:41.461Z,7.25
2023-04-09T19:31:09.440Z,7.24
2023-04-09T19:33:37.687Z,7.24
2023-04-09T19:36:08.002Z,7.25
2023-04-09T19:38:36.482Z,7.23
2023-04-09T19:41:05.229Z,7.23
2023-04-09T19:43:33.251Z,7.22
2023-04-09T19:46:08.576Z,7.19
2023-04-09T19:48:37.809Z,7.16
2023-04-09T19:51:07.008Z,7.13
2023-04-09T19:53:36.368Z,7.07
2023-04-09T19:56:04.872Z,7.05
2023-04-09T19:58:33.694Z,7.04
2023-04-09T20:01:02.187Z,7.04
2023-04-09T20:03:32.812Z,7.04
2023-04-09T20:06:01.187Z,7.02
2023-04-09T20:08:29.226Z,7.00
2023-04-09T20:10:57.218Z,6.99
2023-04-09T20:13:25.632Z,6.99
2023-04-09T20:15:54.812Z,6.98
2023-04-09T20:18:22.750Z,6.96
2023-04-09T20:20:50.993Z,6.97
2023-04-09T20:23:19.437Z,6.95
2023-04-09T20:25:47.495Z,6.96
2023-04-09T20:28:15.660Z,6.95
2023-04-09T20:30:43.586Z,6.94
2023-04-09T20:33:11.796Z,6.90
2023-04-09T20:35:39.792Z,6.87
2023-04-09T20:38:08.734Z,6.83
2023-04-09T20:40:39.313Z,6.82
2023-04-09T20:43:07.551Z,6.84
2023-04-09T20:45:35.597Z,6.83
2023-04-09T20:48:03.846Z,6.83
2023-04-09T20:50:31.935Z,6.80
2023-04-09T20:52:59.948Z,6.79
2023-04-09T20:55:28.048Z,6.78
2023-04-09T20:57:56.027Z,6.78
2023-04-09T21:00:24.145Z,6.76
2023-04-09T21:02:52.209Z,6.74
2023-04-09T21:05:23.926Z,6.74
2023-04-09T21:07:53.108Z,6.71
2023-04-09T21:10:21.329Z,6.70
2023-04-09T21:12:49.518Z,6.66
2023-04-09T21:15:17.550Z,6.65
2023-04-09T21:17:46.004Z,6.67
2023-04-09T21:20:15.522Z,6.66
2023-04-09T21:22:43.493Z,6.65
2023-04-09T21:25:13.306Z,6.61
2023-04-09T21:27:42.585Z,6.57
2023-04-09T21:30:11.237Z,6.57
2023-04-09T21:32:39.302Z,6.57
2023-04-09T21:35:07.728Z,6.55
2023-04-09T21:37:37.648Z,6.54
2023-04-09T21:40:06.400Z,6.53
2023-04-09T21:42:34.970Z,6.53
2023-04-09T21:45:03.766Z,6.50
2023-04-09T21:47:32.219Z,6.47
2023-04-09T21:50:00.289Z,6.46
2023-04-09T21:52:28.367Z,6.45
2023-04-09T21:54:56.284Z,6.45
2023-04-09T21:57:24.342Z,6.46
2023-04-09T21:59:52.892Z,6.43
2023-04-09T22:02:21.001Z,6.42
2023-04-09T22:04:52.240Z,6.41
2023-04-09T22:07:20.423Z,6.42
2023-04-09T22:09:48.334Z,6.40
2023-04-09T22:12:16.595Z,6.38
2023-04-09T22:14:46.003Z,6.40
2023-04-09T22:17:13.973Z,6.40
2023-04-09T22:19:42.013Z,6.40
2023-04-09T22:22:12.243Z,6.38
2023-04-09T22:24:41.552Z,6.38
2023-04-09T22:27:09.691Z,6.38
2023-04-09T22:29:38.003Z,6.38
2023-04-09T22:32:06.077Z,6.34
2023-04-09T22:34:34.073Z,6.31
2023-04-09T22:37:02.188Z,6.30
2023-04-09T22:39:30.135Z,6.31
2023-04-09T22:41:59.243Z,6.32
2023-04-09T22:44:27.491Z,6.30
2023-04-09T22:46:55.561Z,6.28
2023-04-09T22:49:24.051Z,6.26
2023-04-09T22:51:51.962Z,6.26
2023-04-09T22:54:20.191Z,6.26
2023-04-09T22:56:48.906Z,6.28
2023-04-09T22:59:17.446Z,6.27
2023-04-09T23:01:45.851Z,6.28
2023-04-09T23:04:14.072Z,6.27
2023-04-09T23:06:42.118Z,6.23
2023-04-09T23:09:11.051Z,6.22
2023-04-09T23:11:39.108Z,6.21
2023-04-09T23:14:07.044Z,6.21
2023-04-09T23:16:35.152Z,6.21
2023-04-09T23:19:03.597Z,6.20
2023-04-09T23:21:31.962Z,6.18
2023-04-09T23:23:59.899Z,6.16
2023-04-09T23:26:27.838Z,6.15
2023-04-09T23:28:55.928Z,6.15
2023-04-09T23:31:24.029Z,6.16
2023-04-09T23:33:52.089Z,6.17
2023-04-09T23:36:20.470Z,6.18
2023-04-09T23:38:48.487Z,6.19
2023-04-09T23:41:16.455Z,6.19
2023-04-09T23:43:44.526Z,6.19
2023-04-09T23:46:12.455Z,6.21
2023-04-09T23:48:40.462Z,6.21
2023-04-09T23:51:08.446Z,6.22
2023-04-09T23:53:36.366Z,6.21
2023-04-09T23:56:04.739Z,6.19
2023-04-09T23:58:32.853Z,6.18
